Time;durP1;ratioP1;P1;durP2;ratioP2;P2;SDS_P1;SDS_P2;PMS_P1;PMS_P2;Temp;Humidity;BMP_temperature;BMP_pressure;BME280_temperature;BME280_humidity;BME280_pressure;Samples;Min_cycle;Max_cycle;Signal;HPM_P1;HPM_P2
2022/01/19 00:00:00;;;;;;;11.13;7.50;;;;;;;;;;5071727;28;20047;-72
2022/01/19 00:02:45;;;;;;;11.70;7.22;;;;;;;;;;5044639;28;20064;-73
2022/01/19 00:05:30;;;;;;;15.35;7.65;;;;;;;;;;5053462;28;20329;-76
2022/01/19 00:08:19;;;;;;;13.02;6.70;;;;;;;;;;5045986;28;20044;-80
2022/01/19 00:11:04;;;;;;;13.75;7.65;;;;;;;;;;5066406;28;20056;-80
2022/01/19 00:13:50;;;;;;;13.70;9.35;;;;;;;;;;5050778;28;20029;-80
2022/01/19 00:16:35;;;;;;;13.27;7.80;;;;;;;;;;5066329;28;20411;-78
2022/01/19 00:19:20;;;;;;;14.38;7.72;;;;;;;;;;5045324;28;20048;-80
2022/01/19 00:22:06;;;;;;;12.85;7.53;;;;;;;;;;5061892;28;20072;-74
2022/01/19 00:24:51;;;;;;;13.35;6.70;;;;;;;;;;5055039;28;20068;-73
2022/01/19 00:27:36;;;;;;;10.90;7.40;;;;;;;;;;5067623;28;20032;-75
2022/01/19 00:30:23;;;;;;;13.07;8.25;;;;;;;;;;5063718;28;20082;-75
2022/01/19 00:33:08;;;;;;;12.23;7.82;;;;;;;;;;5051324;28;20033;-75
2022/01/19 00:35:53;;;;;;;15.52;7.50;;;;;;;;;;5061329;28;20021;-75
2022/01/19 00:38:39;;;;;;;11.93;8.05;;;;;;;;;;5051030;28;20041;-76
2022/01/19 00:41:24;;;;;;;14.07;7.82;;;;;;;;;;5079778;28;20028;-81
2022/01/19 00:44:09;;;;;;;11.48;7.68;;;;;;;;;;5054112;28;20277;-72
2022/01/19 00:46:54;;;;;;;12.27;8.02;;;;;;;;;;5060702;28;20032;-71
2022/01/19 00:49:42;;;;;;;17.80;9.75;;;;;;;;;;5066778;28;20485;-72
2022/01/19 00:52:27;;;;;;;17.25;9.38;;;;;;;;;;5062098;28;20028;-71
2022/01/19 00:55:13;;;;;;;16.30;9.95;;;;;;;;;;5051202;28;20028;-72
2022/01/19 00:57:58;;;;;;;16.55;8.70;;;;;;;;;;5062096;28;20031;-73
2022/01/19 01:00:43;;;;;;;14.60;9.10;;;;;;;;;;5076522;28;20130;-69
2022/01/19 01:03:28;;;;;;;16.42;8.75;;;;;;;;;;5063467;28;20032;-72
2022/01/19 01:06:14;;;;;;;14.40;9.70;;;;;;;;;;5067882;28;20145;-72
2022/01/19 01:08:59;;;;;;;15.38;10.63;;;;;;;;;;5067046;28;20040;-73
2022/01/19 01:11:59;;;;;;;15.52;9.18;;;;;;;;;;5051812;28;20028;-74
2022/01/19 01:20:50;;;;;;;16.60;10.05;;;;;;;;;;5077721;22;20033;-70
2022/01/19 01:23:36;;;;;;;17.45;10.88;;;;;;;;;;5044477;28;20083;-68
2022/01/19 01:26:21;;;;;;;17.08;8.93;;;;;;;;;;5046343;28;20049;-68
2022/01/19 01:29:06;;;;;;;14.30;8.95;;;;;;;;;;5053060;28;20033;-71
2022/01/19 01:31:52;;;;;;;15.25;8.98;;;;;;;;;;5031703;28;20480;-67
2022/01/19 01:34:37;;;;;;;15.45;9.32;;;;;;;;;;5046748;28;20104;-68
2022/01/19 01:37:22;;;;;;;14.52;8.63;;;;;;;;;;5045446;28;20083;-73
2022/01/19 01:40:12;;;;;;;12.85;8.07;;;;;;;;;;5046695;28;20144;-71
2022/01/19 01:42:58;;;;;;;18.92;9.93;;;;;;;;;;5042040;28;20033;-72
2022/01/19 01:45:46;;;;;;;14.95;9.23;;;;;;;;;;5044594;28;20090;-69
2022/01/19 01:48:35;;;;;;;15.98;9.57;;;;;;;;;;5043703;28;20029;-72
2022/01/19 01:54:25;;;;;;;13.90;9.75;;;;;;;;;;5026616;28;20030;-72
2022/01/19 01:57:11;;;;;;;16.13;10.18;;;;;;;;;;5012870;28;20064;-71
2022/01/19 01:59:56;;;;;;;19.15;10.60;;;;;;;;;;5003036;28;20109;-73
2022/01/19 02:02:41;;;;;;;16.15;10.23;;;;;;;;;;5026386;28;20108;-70
2022/01/19 02:05:27;;;;;;;15.43;9.38;;;;;;;;;;5026112;28;20071;-71
2022/01/19 02:08:20;;;;;;;14.48;10.32;;;;;;;;;;5025653;28;20411;-72
2022/01/19 02:26:18;;;;;;;16.55;9.82;;;;;;;;;;5031267;28;20033;-72
2022/01/19 02:29:15;;;;;;;14.15;9.57;;;;;;;;;;5024186;28;20030;-73
2022/01/19 02:41:12;;;;;;;16.05;9.57;;;;;;;;;;5029643;28;20025;-71
2022/01/19 02:43:58;;;;;;;15.15;9.32;;;;;;;;;;5030199;28;20090;-69
2022/01/19 02:49:10;;;;;;;15.82;9.43;;;;;;;;;;5031014;28;20497;-70
2022/01/19 02:49:57;;;;;;;16.48;11.35;;;;;;;;;;5041351;28;20156;-72
2022/01/19 02:52:43;;;;;;;15.63;11.20;;;;;;;;;;5011124;28;20124;-71
2022/01/19 02:55:29;;;;;;;20.02;12.02;;;;;;;;;;5011814;28;20060;-72
2022/01/19 02:58:18;;;;;;;16.23;11.05;;;;;;;;;;5026850;28;20025;-71
2022/01/19 03:10:03;;;;;;;19.92;9.45;;;;;;;;;;5023983;28;20037;-69
2022/01/19 03:12:48;;;;;;;13.32;8.80;;;;;;;;;;5003813;28;20487;-71
2022/01/19 03:15:33;;;;;;;13.43;8.77;;;;;;;;;;5019458;28;20432;-71
2022/01/19 03:18:18;;;;;;;15.90;9.88;;;;;;;;;;5010832;28;20057;-71
2022/01/19 03:21:04;;;;;;;15.95;9.60;;;;;;;;;;5023042;28;20508;-71
2022/01/19 03:23:50;;;;;;;19.27;9.93;;;;;;;;;;5023438;28;20040;-71
2022/01/19 03:26:35;;;;;;;18.58;9.57;;;;;;;;;;5027679;28;20034;-74
2022/01/19 03:29:20;;;;;;;17.38;10.38;;;;;;;;;;5012690;28;20062;-72
2022/01/19 03:32:06;;;;;;;13.70;8.90;;;;;;;;;;5018852;28;20397;-72
2022/01/19 03:34:51;;;;;;;15.55;9.60;;;;;;;;;;5013082;28;20021;-75
2022/01/19 03:37:37;;;;;;;20.10;11.05;;;;;;;;;;5012595;28;20433;-75
2022/01/19 03:40:22;;;;;;;18.40;9.82;;;;;;;;;;5024112;28;20102;-74
2022/01/19 03:43:08;;;;;;;17.20;9.20;;;;;;;;;;5025708;28;20036;-72
2022/01/19 03:45:57;;;;;;;16.60;10.63;;;;;;;;;;5010982;28;20084;-74
2022/01/19 03:51:28;;;;;;;22.15;12.60;;;;;;;;;;5019744;28;20034;-72
2022/01/19 03:54:13;;;;;;;19.30;12.93;;;;;;;;;;5028737;28;20025;-71
2022/01/19 03:56:59;;;;;;;16.10;10.50;;;;;;;;;;5019184;28;20052;-70
2022/01/19 03:59:44;;;;;;;17.48;9.40;;;;;;;;;;5010063;28;20112;-70
2022/01/19 04:02:29;;;;;;;19.33;12.10;;;;;;;;;;5012977;28;20523;-72
2022/01/19 04:05:25;;;;;;;14.95;10.52;;;;;;;;;;5020095;28;20109;-69
2022/01/19 04:08:10;;;;;;;15.85;10.02;;;;;;;;;;5024828;28;20484;-74
2022/01/19 04:10:56;;;;;;;20.27;11.13;;;;;;;;;;5014671;28;20396;-71
2022/01/19 04:16:41;;;;;;;17.00;8.82;;;;;;;;;;5029997;28;20030;-73
2022/01/19 04:19:33;;;;;;;20.05;10.95;;;;;;;;;;5024924;28;20227;-73
2022/01/19 04:22:20;;;;;;;14.38;8.90;;;;;;;;;;5027406;28;20052;-71
2022/01/19 04:25:05;;;;;;;19.85;10.50;;;;;;;;;;5031772;28;20026;-71
2022/01/19 04:27:51;;;;;;;16.55;9.35;;;;;;;;;;5030983;28;20025;-70
2022/01/19 04:30:36;;;;;;;14.50;9.00;;;;;;;;;;5029694;28;20388;-71
2022/01/19 04:33:25;;;;;;;16.10;10.77;;;;;;;;;;5024149;28;20195;-71
2022/01/19 04:44:03;;;;;;;14.50;9.05;;;;;;;;;;4969835;28;20087;-70
2022/01/19 04:54:11;;;;;;;15.63;10.60;;;;;;;;;;5025629;28;20121;-71
2022/01/19 05:04:02;;;;;;;18.80;10.40;;;;;;;;;;5026246;28;20025;-71
2022/01/19 05:06:52;;;;;;;18.17;10.02;;;;;;;;;;5026652;28;20018;-72
2022/01/19 05:15:26;;;;;;;20.75;11.32;;;;;;;;;;5035591;28;20721;-71
2022/01/19 05:18:12;;;;;;;20.77;11.27;;;;;;;;;;5027469;28;20033;-72
2022/01/19 05:20:58;;;;;;;18.35;9.80;;;;;;;;;;5021070;28;20046;-71
2022/01/19 05:23:43;;;;;;;19.08;10.85;;;;;;;;;;5026759;28;20383;-75
2022/01/19 05:26:28;;;;;;;22.20;11.85;;;;;;;;;;5027414;28;20040;-70
2022/01/19 05:29:13;;;;;;;16.15;10.52;;;;;;;;;;5027730;28;20041;-71
2022/01/19 05:31:59;;;;;;;21.80;12.60;;;;;;;;;;5024296;28;20021;-71
2022/01/19 05:34:44;;;;;;;15.05;10.45;;;;;;;;;;5027260;28;20328;-70
2022/01/19 05:37:30;;;;;;;17.40;11.38;;;;;;;;;;5025881;28;20014;-70
2022/01/19 05:40:15;;;;;;;22.50;12.45;;;;;;;;;;5012997;28;20025;-74
2022/01/19 05:43:00;;;;;;;20.42;11.93;;;;;;;;;;5009054;28;20022;-73
2022/01/19 05:45:46;;;;;;;20.08;12.25;;;;;;;;;;5018472;28;20029;-75
2022/01/19 05:48:31;;;;;;;22.13;12.70;;;;;;;;;;5005117;28;20038;-73
2022/01/19 05:51:16;;;;;;;20.00;13.02;;;;;;;;;;5030102;28;20025;-76
2022/01/19 05:54:02;;;;;;;20.13;11.38;;;;;;;;;;5025337;28;20028;-71
2022/01/19 05:56:47;;;;;;;24.02;13.60;;;;;;;;;;5031302;28;20021;-74
2022/01/19 05:59:33;;;;;;;19.70;11.88;;;;;;;;;;5029913;28;20025;-74
2022/01/19 06:02:18;;;;;;;18.77;10.75;;;;;;;;;;5029838;28;20140;-74
2022/01/19 06:05:04;;;;;;;19.90;12.57;;;;;;;;;;5015375;28;20063;-74
2022/01/19 06:07:59;;;;;;;21.60;11.88;;;;;;;;;;5017752;28;20029;-74
2022/01/19 06:10:45;;;;;;;17.48;10.48;;;;;;;;;;5024031;28;20109;-75
2022/01/19 06:13:30;;;;;;;19.05;12.10;;;;;;;;;;5029462;28;20085;-71
2022/01/19 06:16:16;;;;;;;23.00;12.20;;;;;;;;;;5027621;28;20033;-71
2022/01/19 06:19:01;;;;;;;22.55;12.55;;;;;;;;;;5016427;28;20519;-71
2022/01/19 06:21:46;;;;;;;20.08;12.50;;;;;;;;;;5015852;28;20121;-72
2022/01/19 06:24:31;;;;;;;18.05;11.68;;;;;;;;;;5029666;28;20521;-71
2022/01/19 06:27:17;;;;;;;19.70;12.57;;;;;;;;;;5023516;28;20033;-72
2022/01/19 06:30:02;;;;;;;19.25;11.20;;;;;;;;;;5027660;28;20029;-72
2022/01/19 06:32:48;;;;;;;19.50;11.77;;;;;;;;;;5013833;28;20056;-75
2022/01/19 06:35:33;;;;;;;20.80;12.38;;;;;;;;;;5028447;28;20121;-74
2022/01/19 06:38:18;;;;;;;18.58;10.27;;;;;;;;;;5024977;28;20419;-73
2022/01/19 06:41:04;;;;;;;22.25;11.63;;;;;;;;;;5014492;28;20543;-73
2022/01/19 06:43:49;;;;;;;22.05;12.45;;;;;;;;;;5007530;28;20500;-73
2022/01/19 06:46:35;;;;;;;14.55;9.80;;;;;;;;;;5021692;28;20104;-75
2022/01/19 06:49:20;;;;;;;15.88;10.13;;;;;;;;;;5014783;28;20109;-73
2022/01/19 06:52:05;;;;;;;20.85;11.02;;;;;;;;;;5017694;28;20524;-73
2022/01/19 06:54:51;;;;;;;17.13;11.23;;;;;;;;;;5016430;28;20437;-71
2022/01/19 06:57:36;;;;;;;18.20;12.02;;;;;;;;;;5024381;28;20037;-71
2022/01/19 07:00:21;;;;;;;17.23;11.60;;;;;;;;;;5011103;28;20061;-70
2022/01/19 07:03:07;;;;;;;20.20;11.85;;;;;;;;;;5023629;28;20109;-71
2022/01/19 07:05:52;;;;;;;22.77;13.68;;;;;;;;;;5042797;28;20021;-71
2022/01/19 07:08:38;;;;;;;25.77;13.15;;;;;;;;;;5021428;28;20040;-67
2022/01/19 07:11:24;;;;;;;19.48;11.32;;;;;;;;;;5029007;28;20036;-73
2022/01/19 07:14:12;;;;;;;23.23;11.82;;;;;;;;;;5028820;28;20045;-73
2022/01/19 07:16:57;;;;;;;22.65;12.15;;;;;;;;;;5021171;28;20044;-74
2022/01/19 07:19:43;;;;;;;25.15;13.00;;;;;;;;;;5018026;28;20022;-73
2022/01/19 07:22:28;;;;;;;17.90;11.18;;;;;;;;;;5023554;28;20420;-74
2022/01/19 07:25:13;;;;;;;19.52;11.25;;;;;;;;;;5027994;28;20021;-69
2022/01/19 07:27:58;;;;;;;32.15;13.00;;;;;;;;;;5024517;28;20503;-70
2022/01/19 07:30:44;;;;;;;21.42;12.88;;;;;;;;;;5007668;28;20038;-70
2022/01/19 07:33:29;;;;;;;22.30;11.77;;;;;;;;;;5016058;28;20034;-69
2022/01/19 07:36:16;;;;;;;21.65;10.70;;;;;;;;;;5022473;28;20136;-71
2022/01/19 07:39:01;;;;;;;20.50;12.50;;;;;;;;;;5010549;28;20476;-70
2022/01/19 07:41:46;;;;;;;26.05;14.02;;;;;;;;;;5027557;28;20033;-72
2022/01/19 07:44:32;;;;;;;22.80;12.70;;;;;;;;;;5011139;28;20116;-71
2022/01/19 07:47:18;;;;;;;26.67;12.48;;;;;;;;;;5027348;28;20032;-70
2022/01/19 07:50:04;;;;;;;22.55;12.50;;;;;;;;;;5004759;28;20179;-73
2022/01/19 07:52:50;;;;;;;21.08;12.55;;;;;;;;;;5011203;28;20013;-71
2022/01/19 07:55:35;;;;;;;26.73;13.48;;;;;;;;;;5020780;28;20047;-71
2022/01/19 07:58:20;;;;;;;22.38;12.05;;;;;;;;;;5025260;28;20053;-72
2022/01/19 08:01:06;;;;;;;27.65;14.27;;;;;;;;;;5022855;28;20036;-74
2022/01/19 08:03:51;;;;;;;23.02;13.27;;;;;;;;;;5020960;28;20194;-70
2022/01/19 08:06:36;;;;;;;24.38;13.60;;;;;;;;;;5025208;28;20424;-68
2022/01/19 08:09:22;;;;;;;27.83;15.82;;;;;;;;;;5007015;28;20037;-66
2022/01/19 08:12:08;;;;;;;20.00;12.63;;;;;;;;;;5010467;28;20140;-70
2022/01/19 08:14:53;;;;;;;24.27;13.85;;;;;;;;;;5023981;28;20021;-66
2022/01/19 08:17:38;;;;;;;20.55;13.35;;;;;;;;;;5026989;28;20132;-66
2022/01/19 08:20:24;;;;;;;25.77;13.75;;;;;;;;;;5024812;28;20036;-71
2022/01/19 08:23:09;;;;;;;20.20;12.85;;;;;;;;;;5013799;28;20045;-71
2022/01/19 08:25:55;;;;;;;19.17;11.77;;;;;;;;;;5006076;28;20041;-80
2022/01/19 08:28:40;;;;;;;20.75;12.77;;;;;;;;;;5028133;28;20037;-79
2022/01/19 08:31:25;;;;;;;20.38;12.75;;;;;;;;;;5009128;28;20028;-82
2022/01/19 08:34:11;;;;;;;22.25;13.57;;;;;;;;;;5024491;28;20021;-86
2022/01/19 08:36:56;;;;;;;20.73;11.95;;;;;;;;;;5008951;28;20056;-85
2022/01/19 08:39:42;;;;;;;21.15;13.60;;;;;;;;;;5010486;28;20033;-71
2022/01/19 08:42:28;;;;;;;23.00;12.35;;;;;;;;;;5007744;28;20057;-71
2022/01/19 08:45:14;;;;;;;22.40;12.95;;;;;;;;;;5022803;28;20082;-71
2022/01/19 08:47:59;;;;;;;23.67;15.23;;;;;;;;;;5037669;28;20026;-70
2022/01/19 08:50:44;;;;;;;24.15;13.32;;;;;;;;;;5008676;28;20033;-72
2022/01/19 08:53:30;;;;;;;22.48;13.60;;;;;;;;;;5020570;28;20041;-71
2022/01/19 08:56:15;;;;;;;21.40;13.27;;;;;;;;;;5020218;28;20029;-69
2022/01/19 08:59:00;;;;;;;25.08;15.55;;;;;;;;;;5025047;28;20089;-71
2022/01/19 09:01:46;;;;;;;23.95;15.23;;;;;;;;;;5020226;28;20034;-70
2022/01/19 09:04:31;;;;;;;24.67;14.82;;;;;;;;;;5009681;28;20025;-73
2022/01/19 09:07:17;;;;;;;22.60;14.07;;;;;;;;;;5010301;28;20032;-71
2022/01/19 09:10:03;;;;;;;21.08;14.32;;;;;;;;;;5027135;28;20110;-71
2022/01/19 09:12:48;;;;;;;21.63;14.68;;;;;;;;;;5016366;28;20175;-72
2022/01/19 09:15:34;;;;;;;23.20;15.23;;;;;;;;;;5024036;28;20075;-73
2022/01/19 09:18:19;;;;;;;25.05;16.48;;;;;;;;;;5017627;28;20022;-83
2022/01/19 09:21:04;;;;;;;30.83;17.83;;;;;;;;;;5026051;28;20099;-71
2022/01/19 09:23:50;;;;;;;25.63;15.43;;;;;;;;;;5018774;28;20033;-71
2022/01/19 09:26:35;;;;;;;28.70;16.60;;;;;;;;;;5028107;28;20033;-73
2022/01/19 09:29:20;;;;;;;22.83;16.00;;;;;;;;;;5013635;28;20044;-72
2022/01/19 09:32:08;;;;;;;26.27;17.35;;;;;;;;;;5011519;28;20037;-71
2022/01/19 09:35:05;;;;;;;24.60;18.02;;;;;;;;;;5029851;28;20109;-70
2022/01/19 09:37:51;;;;;;;25.40;15.57;;;;;;;;;;5029742;28;20113;-67
2022/01/19 09:40:37;;;;;;;26.98;15.40;;;;;;;;;;5014848;28;20535;-67
2022/01/19 09:43:22;;;;;;;25.23;16.17;;;;;;;;;;5025987;28;20028;-67
2022/01/19 09:46:07;;;;;;;24.73;16.75;;;;;;;;;;5013629;28;20044;-69
2022/01/19 09:48:53;;;;;;;24.50;17.42;;;;;;;;;;5028190;28;20036;-69
2022/01/19 09:51:42;;;;;;;21.90;15.93;;;;;;;;;;5013979;28;20128;-70
2022/01/19 09:54:30;;;;;;;23.98;16.55;;;;;;;;;;5024012;28;20256;-69
2022/01/19 09:57:15;;;;;;;23.17;14.93;;;;;;;;;;5013525;28;20095;-71
2022/01/19 10:00:00;;;;;;;24.30;17.58;;;;;;;;;;5012431;28;20136;-72
2022/01/19 10:03:05;;;;;;;22.55;15.70;;;;;;;;;;5011347;28;20049;-71
2022/01/19 10:06:07;;;;;;;25.67;16.35;;;;;;;;;;5039330;28;20109;-70
2022/01/19 10:08:54;;;;;;;21.98;15.13;;;;;;;;;;5023367;28;20052;-71
2022/01/19 10:17:31;;;;;;;23.50;14.82;;;;;;;;;;5029135;28;20033;-75
2022/01/19 10:20:23;;;;;;;23.55;17.15;;;;;;;;;;5014444;28;20025;-74
2022/01/19 10:23:27;;;;;;;26.88;16.23;;;;;;;;;;5009553;28;20071;-71
2022/01/19 10:26:13;;;;;;;21.33;13.90;;;;;;;;;;5012979;28;20377;-71
2022/01/19 10:29:07;;;;;;;26.67;16.55;;;;;;;;;;5025849;28;20366;-71
2022/01/19 10:32:02;;;;;;;23.33;15.55;;;;;;;;;;5028610;28;20025;-72
2022/01/19 10:34:47;;;;;;;22.02;16.33;;;;;;;;;;5029509;28;20022;-70
2022/01/19 10:37:32;;;;;;;19.30;14.82;;;;;;;;;;5022885;28;20029;-73
2022/01/19 10:40:19;;;;;;;24.67;13.90;;;;;;;;;;5023641;28;20465;-70
2022/01/19 10:43:23;;;;;;;20.10;13.05;;;;;;;;;;5006894;28;20040;-71
2022/01/19 10:46:25;;;;;;;20.02;14.00;;;;;;;;;;5023935;28;20128;-72
2022/01/19 10:49:11;;;;;;;18.20;12.77;;;;;;;;;;5026283;28;20033;-68
2022/01/19 10:51:58;;;;;;;26.50;13.38;;;;;;;;;;5023779;28;20032;-76
2022/01/19 10:54:47;;;;;;;18.23;14.35;;;;;;;;;;5013211;28;20124;-77
2022/01/19 10:57:34;;;;;;;19.13;12.25;;;;;;;;;;5034309;28;20109;-74
2022/01/19 11:03:42;;;;;;;14.13;10.32;;;;;;;;;;4985323;28;20121;-75
2022/01/19 11:06:27;;;;;;;16.05;11.75;;;;;;;;;;4956723;28;20029;-68
2022/01/19 11:09:14;;;;;;;19.65;14.15;;;;;;;;;;4964220;28;20030;-70
2022/01/19 11:12:22;;;;;;;15.88;11.15;;;;;;;;;;4959457;28;20036;-74
2022/01/19 11:15:49;;;;;;;17.20;11.27;;;;;;;;;;4944020;28;20036;-74
2022/01/19 11:18:44;;;;;;;39.42;36.83;;;;;;;;;;4967492;28;20031;-78
2022/01/19 11:21:30;;;;;;;17.85;16.05;;;;;;;;;;4973742;28;20532;-79
2022/01/19 11:24:24;;;;;;;15.82;11.15;;;;;;;;;;4973254;28;20026;-76
2022/01/19 11:27:10;;;;;;;14.50;11.43;;;;;;;;;;4972284;28;20042;-71
2022/01/19 11:30:07;;;;;;;16.75;11.43;;;;;;;;;;4983251;28;20136;-71
2022/01/19 11:33:11;;;;;;;17.98;14.27;;;;;;;;;;4971053;28;20021;-71
2022/01/19 11:36:01;;;;;;;26.58;24.55;;;;;;;;;;4983086;28;20022;-72
2022/01/19 11:39:02;;;;;;;38.00;35.13;;;;;;;;;;4981759;28;20401;-72
2022/01/19 11:41:50;;;;;;;1999.90;999.90;;;;;;;;;;5010532;28;20034;-71
2022/01/19 11:44:35;;;;;;;1999.90;999.90;;;;;;;;;;5022216;28;20033;-66
2022/01/19 11:47:23;;;;;;;1999.90;999.90;;;;;;;;;;5025251;28;20480;-78
2022/01/19 11:50:13;;;;;;;16.33;11.23;;;;;;;;;;5027789;28;20400;-76
2022/01/19 11:53:05;;;;;;;;;;;;;;;;;;5027698;28;20029;-74
2022/01/19 11:56:02;;;;;;;19.77;12.98;;;;;;;;;;5012375;28;19936;-73
2022/01/19 11:59:00;;;;;;;20.27;12.68;;;;;;;;;;5023168;28;20025;-74
2022/01/19 12:01:46;;;;;;;1999.90;999.90;;;;;;;;;;5024761;28;20014;-78
2022/01/19 12:04:36;;;;;;;1999.90;999.90;;;;;;;;;;5013701;28;20044;-71
2022/01/19 12:07:34;;;;;;;1999.90;999.90;;;;;;;;;;5024492;28;20045;-68
2022/01/19 12:10:42;;;;;;;41.50;38.47;;;;;;;;;;5025839;28;20047;-69
2022/01/19 12:13:40;;;;;;;25.02;21.20;;;;;;;;;;5024854;28;20481;-72
2022/01/19 12:17:24;;;;;;;19.15;12.85;;;;;;;;;;5020476;28;20029;-72
2022/01/19 12:19:38;;;;;;;17.73;12.05;;;;;;;;;;5026218;28;20495;-70
2022/01/19 12:22:26;;;;;;;24.38;15.05;;;;;;;;;;5026772;28;20287;-75
2022/01/19 12:25:13;;;;;;;18.65;11.75;;;;;;;;;;5012972;28;20047;-71
2022/01/19 12:28:00;;;;;;;18.63;11.85;;;;;;;;;;5014099;28;20044;-68
2022/01/19 12:30:45;;;;;;;16.67;11.15;;;;;;;;;;5022695;28;20041;-72
2022/01/19 12:33:30;;;;;;;16.92;10.23;;;;;;;;;;5019693;28;20159;-71
2022/01/19 12:36:34;;;;;;;19.98;11.43;;;;;;;;;;5011960;28;20064;-71
2022/01/19 12:39:26;;;;;;;20.52;11.02;;;;;;;;;;5025067;28;20204;-73
2022/01/19 12:42:22;;;;;;;19.38;10.63;;;;;;;;;;5020958;28;20102;-71
2022/01/19 12:45:27;;;;;;;14.60;10.48;;;;;;;;;;5022627;28;20033;-72
2022/01/19 12:48:12;;;;;;;14.43;9.50;;;;;;;;;;5037933;28;20131;-71
2022/01/19 12:50:57;;;;;;;15.73;10.52;;;;;;;;;;5015525;28;20100;-69
2022/01/19 12:53:43;;;;;;;16.15;10.55;;;;;;;;;;5024801;28;20033;-71
2022/01/19 12:56:28;;;;;;;15.30;10.43;;;;;;;;;;5009456;28;20029;-71
2022/01/19 12:59:13;;;;;;;15.25;9.85;;;;;;;;;;5008360;28;20013;-69
2022/01/19 13:01:59;;;;;;;18.40;9.95;;;;;;;;;;5027903;28;20396;-80
2022/01/19 13:04:46;;;;;;;16.98;10.15;;;;;;;;;;5003791;28;20065;-83
2022/01/19 13:07:35;;;;;;;16.20;10.38;;;;;;;;;;5020094;28;20037;-83
2022/01/19 13:13:29;;;;;;;15.55;9.13;;;;;;;;;;5026298;28;20061;-79
2022/01/19 13:16:24;;;;;;;17.83;10.25;;;;;;;;;;5026541;28;20441;-75
2022/01/19 13:19:10;;;;;;;12.70;8.30;;;;;;;;;;5008535;28;20033;-77
2022/01/19 13:22:04;;;;;;;17.80;8.93;;;;;;;;;;5025207;28;20060;-73
2022/01/19 13:24:49;;;;;;;14.80;10.05;;;;;;;;;;5025266;28;20475;-75
2022/01/19 13:27:41;;;;;;;15.68;10.05;;;;;;;;;;5025714;28;20545;-73
2022/01/19 13:30:27;;;;;;;17.95;11.05;;;;;;;;;;5021485;28;20353;-74
2022/01/19 13:33:12;;;;;;;16.85;9.65;;;;;;;;;;5024367;28;20018;-68
2022/01/19 13:35:59;;;;;;;16.02;9.10;;;;;;;;;;5024937;28;20028;-72
2022/01/19 13:38:50;;;;;;;12.98;7.88;;;;;;;;;;5065698;23;20148;-68
2022/01/19 13:41:42;;;;;;;14.55;9.20;;;;;;;;;;5046110;28;20412;-70
2022/01/19 13:44:33;;;;;;;11.15;7.60;;;;;;;;;;5031894;28;20021;-69
2022/01/19 13:47:28;;;;;;;14.68;8.07;;;;;;;;;;5032112;28;20033;-70
2022/01/19 13:50:14;;;;;;;17.23;10.43;;;;;;;;;;5030348;28;20037;-69
2022/01/19 13:53:00;;;;;;;16.40;9.45;;;;;;;;;;5031813;28;20348;-69
2022/01/19 13:55:46;;;;;;;15.55;9.30;;;;;;;;;;5030442;28;20080;-70
2022/01/19 13:58:36;;;;;;;14.32;9.48;;;;;;;;;;5032265;28;20032;-68
2022/01/19 14:01:32;;;;;;;11.90;8.77;;;;;;;;;;5031965;28;20029;-71
2022/01/19 14:04:18;;;;;;;14.07;8.50;;;;;;;;;;5030274;28;20022;-71
2022/01/19 14:07:05;;;;;;;12.85;8.23;;;;;;;;;;5031478;28;20028;-71
2022/01/19 14:09:50;;;;;;;17.23;9.98;;;;;;;;;;5031433;28;20045;-69
2022/01/19 14:12:36;;;;;;;11.73;7.45;;;;;;;;;;5035203;28;20021;-83
2022/01/19 14:15:25;;;;;;;12.38;6.63;;;;;;;;;;5034988;28;20103;-70
2022/01/19 14:18:11;;;;;;;9.70;6.05;;;;;;;;;;5035073;28;20021;-72
2022/01/19 14:21:06;;;;;;;10.40;5.95;;;;;;;;;;5047970;28;20031;-70
2022/01/19 14:23:59;;;;;;;10.35;5.95;;;;;;;;;;5033938;28;20021;-70
2022/01/19 14:26:51;;;;;;;9.48;6.18;;;;;;;;;;5034592;28;20159;-71
2022/01/19 14:29:55;;;;;;;8.82;5.40;;;;;;;;;;5035203;28;20044;-74
2022/01/19 14:32:42;;;;;;;12.20;5.53;;;;;;;;;;5033615;28;20021;-68
2022/01/19 14:35:59;;;;;;;11.68;6.30;;;;;;;;;;5034012;28;20021;-69
2022/01/19 14:38:46;;;;;;;11.80;6.60;;;;;;;;;;5045222;28;20052;-68
2022/01/19 14:41:36;;;;;;;11.68;6.65;;;;;;;;;;5034163;28;20029;-71
2022/01/19 14:44:29;;;;;;;12.98;6.78;;;;;;;;;;5034217;28;20041;-68
2022/01/19 14:47:35;;;;;;;12.95;7.05;;;;;;;;;;5033882;28;20468;-70
2022/01/19 14:50:32;;;;;;;12.18;6.97;;;;;;;;;;5034043;28;20072;-81
2022/01/19 14:53:18;;;;;;;10.77;6.80;;;;;;;;;;5034010;28;20063;-70
2022/01/19 14:56:04;;;;;;;11.73;6.93;;;;;;;;;;5034065;28;20025;-70
2022/01/19 14:59:04;;;;;;;11.60;7.30;;;;;;;;;;5034182;28;20033;-72
2022/01/19 15:01:54;;;;;;;12.20;6.93;;;;;;;;;;5034085;28;20033;-72
2022/01/19 15:04:40;;;;;;;12.65;7.60;;;;;;;;;;5033184;28;20030;-70
2022/01/19 15:07:26;;;;;;;10.25;6.80;;;;;;;;;;5033394;28;20017;-68
2022/01/19 15:10:12;;;;;;;15.43;8.50;;;;;;;;;;5033405;28;20037;-70
2022/01/19 15:12:57;;;;;;;12.45;7.35;;;;;;;;;;5033991;28;20022;-70
2022/01/19 15:15:43;;;;;;;12.05;7.05;;;;;;;;;;5033891;28;20040;-72
2022/01/19 15:18:30;;;;;;;15.93;7.65;;;;;;;;;;5033780;28;20032;-77
2022/01/19 15:21:17;;;;;;;11.88;7.20;;;;;;;;;;5032481;28;20440;-72
2022/01/19 15:24:04;;;;;;;11.88;6.82;;;;;;;;;;5032036;28;20529;-69
2022/01/19 15:26:50;;;;;;;13.98;7.07;;;;;;;;;;5032341;28;20502;-69
2022/01/19 15:29:36;;;;;;;11.23;6.90;;;;;;;;;;5032686;28;20030;-73
2022/01/19 15:32:22;;;;;;;11.55;7.43;;;;;;;;;;5033578;28;20465;-72
2022/01/19 15:35:09;;;;;;;11.98;7.45;;;;;;;;;;5034179;28;20032;-70
2022/01/19 15:37:56;;;;;;;13.77;8.10;;;;;;;;;;5032778;28;20398;-72
2022/01/19 15:40:43;;;;;;;13.73;8.43;;;;;;;;;;5033435;28;20018;-70
2022/01/19 15:43:28;;;;;;;16.08;9.35;;;;;;;;;;5033473;28;20402;-75
2022/01/19 15:46:15;;;;;;;13.57;8.32;;;;;;;;;;5033293;28;20017;-65
2022/01/19 15:49:00;;;;;;;14.48;8.73;;;;;;;;;;5033143;28;20132;-66
2022/01/19 15:51:46;;;;;;;14.73;8.40;;;;;;;;;;5033256;28;20033;-66
2022/01/19 15:54:33;;;;;;;14.40;9.48;;;;;;;;;;5033208;28;20032;-66
2022/01/19 15:57:18;;;;;;;13.65;8.32;;;;;;;;;;5033425;28;20109;-67
2022/01/19 16:00:05;;;;;;;14.13;8.85;;;;;;;;;;5032755;28;20416;-66
2022/01/19 16:02:51;;;;;;;13.35;8.80;;;;;;;;;;5033210;28;20021;-77
2022/01/19 16:05:36;;;;;;;16.35;9.27;;;;;;;;;;5033037;28;20025;-65
2022/01/19 16:08:23;;;;;;;15.18;9.30;;;;;;;;;;5031887;28;20026;-66
2022/01/19 16:11:08;;;;;;;13.50;9.02;;;;;;;;;;5033187;28;20032;-68
2022/01/19 16:13:54;;;;;;;13.65;8.50;;;;;;;;;;5032460;28;20049;-67
2022/01/19 16:16:39;;;;;;;15.85;9.52;;;;;;;;;;5032591;28;20388;-66
2022/01/19 16:19:25;;;;;;;14.82;9.70;;;;;;;;;;5032667;28;20013;-77
2022/01/19 16:26:06;;;;;;;14.50;9.23;;;;;;;;;;5032274;28;20067;-68
2022/01/19 16:28:24;;;;;;;13.00;8.32;;;;;;;;;;5033502;28;20057;-78
2022/01/19 16:31:10;;;;;;;15.40;9.57;;;;;;;;;;5032549;28;20425;-77
2022/01/19 16:33:56;;;;;;;14.57;8.60;;;;;;;;;;5032223;28;20109;-77
2022/01/19 16:36:42;;;;;;;17.25;9.60;;;;;;;;;;5031141;28;20026;-79
2022/01/19 16:39:28;;;;;;;17.38;10.43;;;;;;;;;;5032765;28;20457;-69
2022/01/19 16:42:13;;;;;;;17.35;10.80;;;;;;;;;;5032425;28;20048;-69
2022/01/19 16:44:59;;;;;;;14.68;9.15;;;;;;;;;;5044779;28;20025;-69
2022/01/19 16:47:49;;;;;;;14.38;9.10;;;;;;;;;;5031994;28;20028;-69
2022/01/19 16:50:37;;;;;;;15.85;9.68;;;;;;;;;;5032266;28;20184;-65
2022/01/19 16:53:23;;;;;;;15.93;9.40;;;;;;;;;;5031783;28;20444;-69
2022/01/19 16:56:09;;;;;;;14.82;8.70;;;;;;;;;;5031699;28;20057;-67
2022/01/19 16:58:55;;;;;;;14.15;8.15;;;;;;;;;;5031969;28;20022;-68
2022/01/19 17:01:40;;;;;;;15.75;9.40;;;;;;;;;;5030891;28;20103;-67
2022/01/19 17:04:30;;;;;;;13.30;8.60;;;;;;;;;;5031708;28;20033;-68
2022/01/19 17:07:15;;;;;;;14.80;8.43;;;;;;;;;;5031981;28;20022;-69
2022/01/19 17:10:08;;;;;;;16.02;7.90;;;;;;;;;;5031813;28;20041;-67
2022/01/19 17:12:57;;;;;;;13.27;8.25;;;;;;;;;;5033051;28;20021;-66
2022/01/19 17:15:44;;;;;;;16.88;8.07;;;;;;;;;;5032038;28;20032;-67
2022/01/19 17:18:30;;;;;;;12.75;7.60;;;;;;;;;;5031994;28;20029;-67
2022/01/19 17:21:16;;;;;;;13.15;7.85;;;;;;;;;;5031303;28;20336;-68
2022/01/19 17:24:01;;;;;;;15.05;8.25;;;;;;;;;;5031913;28;20377;-67
2022/01/19 17:26:48;;;;;;;13.85;8.30;;;;;;;;;;5031777;28;20056;-66
2022/01/19 17:29:34;;;;;;;12.05;7.18;;;;;;;;;;5031775;28;20128;-66
2022/01/19 17:32:20;;;;;;;10.77;6.50;;;;;;;;;;5031889;28;20448;-67
2022/01/19 17:35:06;;;;;;;13.38;7.88;;;;;;;;;;5032093;28;20025;-78
2022/01/19 17:37:52;;;;;;;11.80;7.03;;;;;;;;;;5030073;28;20041;-70
2022/01/19 17:40:38;;;;;;;12.05;7.10;;;;;;;;;;5031056;28;20075;-70
2022/01/19 17:43:24;;;;;;;13.60;7.35;;;;;;;;;;5031588;28;20153;-69
2022/01/19 17:46:21;;;;;;;13.57;7.55;;;;;;;;;;5033414;28;20025;-66
2022/01/19 17:49:22;;;;;;;14.35;7.10;;;;;;;;;;5035208;28;20071;-65
2022/01/19 17:52:08;;;;;;;14.02;7.75;;;;;;;;;;5035058;28;20526;-64
2022/01/19 17:54:54;;;;;;;13.07;7.28;;;;;;;;;;5036055;28;20029;-69